createdAt,value
2022-11-16T00:01:09.371Z,97854.84
2022-11-16T00:03:36.015Z,97854.84
2022-11-16T00:06:04.265Z,97859.22
2022-11-16T00:08:32.868Z,97864.41
2022-11-16T00:11:10.248Z,97879.03
2022-11-16T00:13:37.525Z,97867.03
2022-11-16T00:16:04.920Z,97862.66
2022-11-16T00:18:32.054Z,97872.19
2022-11-16T00:20:58.893Z,97878.25
2022-11-16T00:23:25.904Z,97871.34
2022-11-16T00:25:53.542Z,97882.53
2022-11-16T00:28:22.994Z,97874.81
2022-11-16T00:30:58.948Z,97868.81
2022-11-16T00:33:25.472Z,97874.84
2022-11-16T00:35:52.020Z,97874.81
2022-11-16T00:38:18.493Z,97875.75
2022-11-16T00:40:44.987Z,97881.69
2022-11-16T00:43:11.482Z,97881.81
2022-11-16T00:45:39.809Z,97879.13
2022-11-16T00:48:06.595Z,97883.50
2022-11-16T00:50:35.913Z,97884.38
2022-11-16T00:53:02.447Z,97880.22
2022-11-16T00:55:28.940Z,97868.06
2022-11-16T00:57:55.476Z,97867.19
2022-11-16T01:00:22.213Z,97874.00
2022-11-16T01:02:48.723Z,97871.56
2022-11-16T01:05:15.293Z,97882.78
2022-11-16T01:07:44.754Z,97881.88
2022-11-16T01:10:14.316Z,97882.75
2022-11-16T01:12:41.088Z,97871.47
2022-11-16T01:15:09.173Z,97871.56
2022-11-16T01:17:37.212Z,97867.25
2022-11-16T01:20:06.121Z,97861.72
2022-11-16T01:22:35.889Z,97852.31
2022-11-16T01:25:02.951Z,97846.41
2022-11-16T01:27:29.451Z,97847.44
2022-11-16T01:29:59.084Z,97856.13
2022-11-16T01:32:28.499Z,97868.13
2022-11-16T01:34:54.967Z,97873.03
2022-11-16T01:37:22.538Z,97869.50
2022-11-16T01:39:50.446Z,97871.19
2022-11-16T01:42:28.365Z,97878.88
2022-11-16T01:45:17.004Z,97875.47
2022-11-16T01:47:43.620Z,97885.81
2022-11-16T01:50:14.699Z,97887.22
2022-11-16T01:52:50.072Z,97887.06
2022-11-16T01:55:17.042Z,97884.22
2022-11-16T01:57:46.883Z,97883.13
2022-11-16T02:00:18.537Z,97885.00
2022-11-16T02:02:45.154Z,97877.97
2022-11-16T02:05:14.942Z,97877.19
2022-11-16T02:08:25.048Z,97867.94
2022-11-16T02:11:19.220Z,97882.03
2022-11-16T02:13:53.471Z,97885.09
2022-11-16T02:16:32.080Z,97884.72
2022-11-16T02:19:10.548Z,97879.63
2022-11-16T02:21:42.931Z,97875.81
2022-11-16T02:24:42.638Z,97875.84
2022-11-16T02:27:50.945Z,97872.38
2022-11-16T02:30:18.347Z,97883.34
2022-11-16T02:32:53.002Z,97889.03
2022-11-16T02:35:29.446Z,97871.03
2022-11-16T02:38:06.637Z,97876.13
2022-11-16T02:40:33.619Z,97877.78
2022-11-16T02:43:08.933Z,97882.78
2022-11-16T02:45:38.459Z,97884.47
2022-11-16T02:48:28.097Z,97891.91
2022-11-16T02:50:55.083Z,97881.72
2022-11-16T02:53:22.558Z,97886.91
2022-11-16T02:55:49.143Z,97877.41
2022-11-16T02:58:25.826Z,97872.19
2022-11-16T03:00:57.526Z,97869.75
2022-11-16T03:03:43.751Z,97877.66
2022-11-16T03:06:21.064Z,97868.13
2022-11-16T03:08:52.424Z,97879.03
2022-11-16T03:11:37.601Z,97880.69
2022-11-16T03:14:12.388Z,97877.31
2022-11-16T03:16:41.382Z,97884.16
2022-11-16T03:19:13.394Z,97887.66
2022-11-16T03:21:44.306Z,97886.78
2022-11-16T03:24:10.892Z,97890.22
2022-11-16T03:26:51.742Z,97890.31
2022-11-16T03:29:31.927Z,97895.50
2022-11-16T03:32:14.793Z,97902.19
2022-11-16T03:34:44.698Z,97906.50
2022-11-16T03:37:12.082Z,97914.28
2022-11-16T03:39:39.119Z,97910.91
2022-11-16T03:42:12.341Z,97913.41
2022-11-16T03:44:39.001Z,97915.81
2022-11-16T03:47:05.567Z,97918.38
2022-11-16T03:49:32.086Z,97918.38
2022-11-16T03:51:58.941Z,97930.22
2022-11-16T03:54:25.819Z,97927.88
2022-11-16T03:56:52.324Z,97926.22
2022-11-16T03:59:18.898Z,97935.91
2022-11-16T04:01:45.406Z,97942.47
2022-11-16T04:04:32.387Z,97937.25
2022-11-16T04:07:17.696Z,97941.50
2022-11-16T04:10:02.807Z,97949.06
2022-11-16T04:12:48.247Z,97941.50
2022-11-16T04:15:36.346Z,97947.44
2022-11-16T04:18:21.499Z,97952.72
2022-11-16T04:21:06.634Z,97944.91
2022-11-16T04:23:51.666Z,97947.66
2022-11-16T04:26:41.230Z,97946.97
2022-11-16T04:29:07.671Z,97949.50
2022-11-16T04:31:53.093Z,97954.69
2022-11-16T04:34:40.199Z,97955.44
2022-11-16T04:37:25.521Z,97953.72
2022-11-16T04:39:51.968Z,97963.00
2022-11-16T04:42:23.971Z,97951.97
2022-11-16T04:45:09.096Z,97962.19
2022-11-16T04:47:35.590Z,97958.63
2022-11-16T04:50:02.085Z,97964.75
2022-11-16T04:52:28.583Z,97955.97
2022-11-16T04:54:55.126Z,97965.88
2022-11-16T04:57:21.680Z,97964.25
2022-11-16T04:59:48.150Z,97973.47
2022-11-16T05:02:17.814Z,97968.38
2022-11-16T05:04:44.514Z,97965.75
2022-11-16T05:07:13.113Z,97962.38
2022-11-16T05:09:42.735Z,97964.13
2022-11-16T05:12:17.211Z,97968.25
2022-11-16T05:14:43.950Z,97964.19
2022-11-16T05:17:11.039Z,97957.97
2022-11-16T05:19:56.119Z,97971.66
2022-11-16T05:22:23.177Z,97969.00
2022-11-16T05:24:49.632Z,97970.75
2022-11-16T05:27:17.557Z,97972.13
2022-11-16T05:29:44.516Z,97961.22
2022-11-16T05:32:12.818Z,97961.28
2022-11-16T05:34:39.726Z,97956.75
2022-11-16T05:37:06.539Z,97954.16
2022-11-16T05:39:33.052Z,97954.84
2022-11-16T05:41:59.623Z,97951.22
2022-11-16T05:44:26.676Z,97953.78
2022-11-16T05:46:53.283Z,97960.41
2022-11-16T05:49:19.794Z,97969.03
2022-11-16T05:51:47.111Z,97966.25
2022-11-16T05:54:25.896Z,97966.00
2022-11-16T05:56:52.780Z,97978.72
2022-11-16T05:59:21.103Z,97976.06
2022-11-16T06:01:48.071Z,97984.25
2022-11-16T06:04:24.106Z,97990.13
2022-11-16T06:06:50.740Z,97997.97
2022-11-16T06:09:17.232Z,97996.22
2022-11-16T06:11:46.517Z,97997.59
2022-11-16T06:14:13.081Z,98000.28
2022-11-16T06:16:39.560Z,97992.38
2022-11-16T06:19:06.215Z,98005.41
2022-11-16T06:21:33.139Z,98004.63
2022-11-16T06:23:59.922Z,98007.19
2022-11-16T06:26:26.500Z,98004.53
2022-11-16T06:28:54.967Z,98007.09
2022-11-16T06:31:21.833Z,98013.59
2022-11-16T06:33:51.177Z,98011.16
2022-11-16T06:36:17.896Z,98021.50
2022-11-16T06:38:44.472Z,98016.28
2022-11-16T06:41:11.090Z,98020.44
2022-11-16T06:43:37.905Z,98024.47
2022-11-16T06:46:04.637Z,98026.63
2022-11-16T06:48:31.472Z,98024.28
2022-11-16T06:50:58.212Z,98032.91
2022-11-16T06:53:30.504Z,98024.22
2022-11-16T06:56:02.091Z,98023.63
2022-11-16T06:58:32.761Z,98030.03
2022-11-16T07:01:09.613Z,98020.06
2022-11-16T07:03:36.149Z,98024.94
2022-11-16T07:06:07.993Z,98036.13
2022-11-16T07:08:36.379Z,98036.88
2022-11-16T07:11:10.448Z,98037.03
2022-11-16T07:13:38.222Z,98038.16
2022-11-16T07:16:09.438Z,98044.13
2022-11-16T07:18:37.917Z,98044.97
2022-11-16T07:21:09.341Z,98042.16
2022-11-16T07:23:36.355Z,98040.16
2022-11-16T07:26:04.415Z,98047.63
2022-11-16T07:28:31.384Z,98041.28
2022-11-16T07:31:07.018Z,98047.13
2022-11-16T07:33:34.112Z,98048.25
2022-11-16T07:36:05.028Z,98048.88
2022-11-16T07:38:32.135Z,98052.50
2022-11-16T07:41:08.734Z,98046.00
2022-11-16T07:43:35.852Z,98052.03
2022-11-16T07:48:58.162Z,98052.03
2022-11-16T07:51:24.722Z,98051.06
2022-11-16T07:53:57.694Z,98054.03
2022-11-16T07:56:24.958Z,98051.06
2022-11-16T07:58:51.548Z,98059.81
2022-11-16T08:01:18.934Z,98054.59
2022-11-16T08:03:48.556Z,98069.09
2022-11-16T08:06:21.600Z,98067.31
2022-11-16T08:08:48.308Z,98063.59
2022-11-16T08:11:16.293Z,98055.22
2022-11-16T08:13:43.050Z,98067.50
2022-11-16T08:16:16.895Z,98064.03
2022-11-16T08:18:46.913Z,98072.63
2022-11-16T08:21:15.575Z,98063.56
2022-11-16T08:23:42.458Z,98065.38
2022-11-16T08:26:15.336Z,98063.78
2022-11-16T08:28:43.424Z,98073.25
2022-11-16T08:31:12.756Z,98078.66
2022-11-16T08:33:39.350Z,98076.19
2022-11-16T08:36:12.559Z,98077.22
2022-11-16T08:38:40.783Z,98080.31
2022-11-16T08:41:08.216Z,98082.94
2022-11-16T08:43:35.811Z,98078.06
2022-11-16T08:46:03.302Z,98075.16
2022-11-16T08:48:30.311Z,98078.75
2022-11-16T08:51:17.434Z,98079.13
2022-11-16T08:53:45.385Z,98081.03
2022-11-16T08:56:15.312Z,98074.41
2022-11-16T08:58:47.411Z,98076.00
2022-11-16T09:01:17.061Z,98078.63
2022-11-16T09:03:43.869Z,98067.50
2022-11-16T09:06:11.351Z,98068.44
2022-11-16T09:08:39.037Z,98076.19
2022-11-16T09:11:11.698Z,98083.06
2022-11-16T09:13:38.355Z,98079.75
2022-11-16T09:16:08.299Z,98079.91
2022-11-16T09:18:36.058Z,98084.31
2022-11-16T09:21:03.050Z,98076.91
2022-11-16T09:23:29.836Z,98078.69
2022-11-16T09:25:56.477Z,98075.56
2022-11-16T09:28:22.959Z,98080.69
2022-11-16T09:30:51.003Z,98079.28
2022-11-16T09:33:17.806Z,98073.25
2022-11-16T09:35:44.477Z,98080.31
2022-11-16T09:38:12.723Z,98089.03
2022-11-16T09:40:45.876Z,98082.31
2022-11-16T09:43:25.513Z,98076.34
2022-11-16T09:46:21.215Z,98089.41
2022-11-16T09:48:49.686Z,98087.63
2022-11-16T09:51:16.975Z,98088.41
2022-11-16T09:53:53.986Z,98079.94
2022-11-16T09:56:29.138Z,98074.13
2022-11-16T09:59:02.887Z,98079.28
2022-11-16T10:01:55.293Z,98075.06
2022-11-16T10:04:29.373Z,98075.88
2022-11-16T10:07:03.952Z,98067.44
2022-11-16T10:09:34.728Z,98064.94
2022-11-16T10:12:22.601Z,98071.97
2022-11-16T10:15:14.051Z,98077.19
2022-11-16T10:18:20.523Z,98067.84
2022-11-16T10:21:07.475Z,98063.72
2022-11-16T10:23:52.793Z,98066.56
2022-11-16T10:26:28.324Z,98050.28
2022-11-16T10:29:00.688Z,98055.63
2022-11-16T10:31:58.240Z,98059.91
2022-11-16T10:34:41.908Z,98045.13
2022-11-16T10:37:10.812Z,98042.59
2022-11-16T10:39:40.962Z,98042.69
2022-11-16T10:42:15.772Z,98039.25
2022-11-16T10:44:46.682Z,98030.84
2022-11-16T10:47:21.155Z,98023.34
2022-11-16T10:49:57.344Z,98028.56
2022-11-16T10:52:26.684Z,98012.59
2022-11-16T10:54:53.556Z,98011.25
2022-11-16T10:58:10.606Z,98011.44
2022-11-16T11:00:52.291Z,98001.41
2022-11-16T11:03:37.834Z,98005.75
2022-11-16T11:06:04.739Z,98003.03
2022-11-16T11:08:31.649Z,98000.44
2022-11-16T11:11:03.333Z,97995.47
2022-11-16T11:13:32.323Z,97994.47
2022-11-16T11:16:18.508Z,97991.78
2022-11-16T11:18:45.066Z,97984.88
2022-11-16T11:21:19.533Z,97984.13
2022-11-16T11:23:51.628Z,97979.84
2022-11-16T11:26:35.856Z,97972.91
2022-11-16T11:29:21.232Z,97976.41
2022-11-16T11:31:51.539Z,97974.75
2022-11-16T11:34:23.880Z,97967.88
2022-11-16T11:36:54.447Z,97971.34
2022-11-16T11:39:20.893Z,97966.00
2022-11-16T11:42:01.171Z,97959.88
2022-11-16T11:44:36.530Z,97959.06
2022-11-16T11:47:55.721Z,97956.47
2022-11-16T11:50:15.726Z,97953.69
2022-11-16T11:57:29.165Z,97960.06
2022-11-16T11:59:55.730Z,97960.53
2022-11-16T12:03:21.120Z,97958.81
2022-11-16T12:05:59.526Z,97954.53
2022-11-16T12:08:40.942Z,97957.94
2022-11-16T12:11:16.721Z,97944.31
2022-11-16T12:13:53.897Z,97949.25
2022-11-16T12:16:33.550Z,97948.31
2022-11-16T12:19:29.625Z,97943.94
2022-11-16T12:22:29.595Z,97949.19
2022-11-16T12:25:00.060Z,97949.28
2022-11-16T12:27:30.454Z,97943.28
2022-11-16T12:30:23.860Z,97949.53
2022-11-16T12:32:59.589Z,97947.56
2022-11-16T12:35:38.817Z,97934.88
2022-11-16T12:38:19.517Z,97937.03
2022-11-16T12:41:12.448Z,97933.72
2022-11-16T12:43:50.417Z,97926.00
2022-11-16T12:46:22.975Z,97919.00
2022-11-16T12:49:32.106Z,97908.84
2022-11-16T12:52:27.764Z,97908.78
2022-11-16T12:55:25.283Z,97914.16
2022-11-16T12:58:18.268Z,97911.66
2022-11-16T13:00:50.750Z,97903.06
2022-11-16T13:03:24.218Z,97906.59
2022-11-16T13:05:58.657Z,97897.09
2022-11-16T13:08:51.371Z,97896.22
2022-11-16T13:11:42.815Z,97887.75
2022-11-16T13:14:42.211Z,97885.94
2022-11-16T13:17:17.474Z,97887.81
2022-11-16T13:19:47.587Z,97892.81
2022-11-16T13:22:23.034Z,97880.13
2022-11-16T13:25:03.806Z,97879.34
2022-11-16T13:27:55.530Z,97885.38
2022-11-16T13:30:33.838Z,97886.03
2022-11-16T13:33:03.718Z,97882.59
2022-11-16T13:35:32.867Z,97880.97
2022-11-16T13:37:59.401Z,97869.69
2022-11-16T13:40:28.284Z,97873.09
2022-11-16T13:43:04.170Z,97862.81
2022-11-16T13:45:56.942Z,97862.69
2022-11-16T13:48:25.449Z,97848.38
2022-11-16T13:50:57.221Z,97847.56
2022-11-16T13:54:37.732Z,97852.63
2022-11-16T13:56:28.913Z,97852.38
2022-11-16T13:58:56.431Z,97844.91
2022-11-16T14:01:23.852Z,97842.66
2022-11-16T14:03:52.084Z,97847.88
2022-11-16T14:06:24.602Z,97847.19
2022-11-16T14:08:52.031Z,97839.31
2022-11-16T14:11:29.518Z,97836.84
2022-11-16T14:13:56.487Z,97847.91
2022-11-16T14:16:22.898Z,97852.47
2022-11-16T14:18:51.770Z,97846.56
2022-11-16T14:21:37.123Z,97835.34
2022-11-16T14:24:12.625Z,97817.28
2022-11-16T14:27:16.069Z,97820.78
2022-11-16T14:29:49.480Z,97824.84
2022-11-16T14:32:24.383Z,97822.22
2022-11-16T14:34:53.465Z,97825.72
2022-11-16T14:37:24.430Z,97831.75
2022-11-16T14:39:51.563Z,97812.88
2022-11-16T14:42:28.577Z,97808.66
2022-11-16T14:45:03.430Z,97805.16
2022-11-16T14:47:32.836Z,97805.25
2022-11-16T14:49:59.391Z,97813.78
2022-11-16T14:52:45.318Z,97802.53
2022-11-16T14:55:24.714Z,97806.84
2022-11-16T14:58:35.957Z,97795.59
2022-11-16T15:01:07.179Z,97802.47
2022-11-16T15:03:53.793Z,97806.53
2022-11-16T15:06:21.041Z,97804.03
2022-11-16T15:08:54.140Z,97804.78
2022-11-16T15:11:47.821Z,97798.63
2022-11-16T15:14:25.955Z,97791.88
2022-11-16T15:16:55.525Z,97787.56
2022-11-16T15:19:22.660Z,97795.34
2022-11-16T15:21:56.376Z,97785.91
2022-11-16T15:24:32.004Z,97782.44
2022-11-16T15:27:27.597Z,97767.06
2022-11-16T15:29:54.108Z,97771.25
2022-11-16T15:32:20.962Z,97760.16
2022-11-16T15:34:54.608Z,97759.19
2022-11-16T16:18:12.650Z,97726.78
2022-11-16T16:20:39.441Z,97729.53
2022-11-16T16:42:52.982Z,97719.34
2022-11-16T16:48:24.702Z,97710.50
2022-11-16T16:53:43.810Z,97706.44
2022-11-16T16:57:07.821Z,97705.63
2022-11-16T16:59:55.427Z,97700.59
2022-11-16T17:02:38.299Z,97695.09
2022-11-16T17:05:38.150Z,97693.19
2022-11-16T17:08:33.651Z,97683.66
2022-11-16T17:11:15.230Z,97679.25
2022-11-16T17:13:55.143Z,97670.72
2022-11-16T17:16:40.724Z,97666.41
2022-11-16T17:19:16.786Z,97662.97
2022-11-16T17:22:00.728Z,97657.72
2022-11-16T17:24:42.355Z,97653.41
2022-11-16T17:27:12.314Z,97658.53
2022-11-16T17:29:47.510Z,97656.84
2022-11-16T17:32:34.603Z,97637.94
2022-11-16T17:35:01.700Z,97645.44
2022-11-16T17:37:40.573Z,97637.69
2022-11-16T17:40:37.391Z,97627.41
2022-11-16T17:43:29.956Z,97630.09
2022-11-16T17:46:22.795Z,97628.34
2022-11-16T17:49:11.842Z,97626.63
2022-11-16T17:54:32.010Z,97614.56
2022-11-16T17:57:01.584Z,97618.63
2022-11-16T17:59:30.019Z,97624.63
2022-11-16T18:01:59.602Z,97622.22
2022-11-16T18:04:34.297Z,97623.84
2022-11-16T18:07:22.593Z,97635.75
2022-11-16T18:10:02.015Z,97627.31
2022-11-16T18:12:38.273Z,97618.81
2022-11-16T18:15:27.595Z,97622.13
2022-11-16T18:17:52.072Z,97616.16
2022-11-16T18:20:27.719Z,97612.88
2022-11-16T18:23:00.140Z,97614.63
2022-11-16T18:25:26.920Z,97613.91
2022-11-16T18:27:54.089Z,97620.78
2022-11-16T18:33:19.944Z,97638.81
2022-11-16T18:35:50.724Z,97642.16
2022-11-16T18:38:17.332Z,97645.47
2022-11-16T18:40:43.967Z,97663.56
2022-11-16T18:43:13.568Z,97657.63
2022-11-16T18:45:40.413Z,97660.13
2022-11-16T18:48:11.221Z,97672.03
2022-11-16T18:50:40.567Z,97659.47
2022-11-16T18:53:07.177Z,97665.47
2022-11-16T18:55:33.738Z,97652.53
2022-11-16T18:58:00.717Z,97646.41
